sensor_id;sensor_type;location;lat;lon;timestamp;temperature;humidity
51476;DHT22;37554;50.362;7.568;2023-07-09T00:00:51;28.70;45.00
51476;DHT22;37554;50.362;7.568;2023-07-09T00:03:18;28.60;44.90
51476;DHT22;37554;50.362;7.568;2023-07-09T00:05:47;28.60;45.00
51476;DHT22;37554;50.362;7.568;2023-07-09T00:08:28;28.60;45.00
51476;DHT22;37554;50.362;7.568;2023-07-09T00:10:55;28.60;45.20
51476;DHT22;37554;50.362;7.568;2023-07-09T00:13:22;28.60;45.10
51476;DHT22;37554;50.362;7.568;2023-07-09T00:15:49;28.50;45.10
51476;DHT22;37554;50.362;7.568;2023-07-09T00:18:15;28.50;45.10
51476;DHT22;37554;50.362;7.568;2023-07-09T00:20:40;28.50;45.10
51476;DHT22;37554;50.362;7.568;2023-07-09T00:23:09;28.50;45.10
51476;DHT22;37554;50.362;7.568;2023-07-09T00:25:35;28.50;45.20
51476;DHT22;37554;50.362;7.568;2023-07-09T00:28:02;28.50;45.20
51476;DHT22;37554;50.362;7.568;2023-07-09T00:30:27;28.40;45.20
51476;DHT22;37554;50.362;7.568;2023-07-09T00:32:53;28.40;45.30
51476;DHT22;37554;50.362;7.568;2023-07-09T00:35:20;28.50;45.40
51476;DHT22;37554;50.362;7.568;2023-07-09T00:37:47;28.40;45.40
51476;DHT22;37554;50.362;7.568;2023-07-09T00:40:18;28.40;45.40
51476;DHT22;37554;50.362;7.568;2023-07-09T00:42:48;28.40;45.50
51476;DHT22;37554;50.362;7.568;2023-07-09T00:45:24;28.30;45.50
51476;DHT22;37554;50.362;7.568;2023-07-09T00:48:14;28.40;45.60
51476;DHT22;37554;50.362;7.568;2023-07-09T00:50:45;28.30;45.70
51476;DHT22;37554;50.362;7.568;2023-07-09T00:53:17;28.30;45.60
51476;DHT22;37554;50.362;7.568;2023-07-09T00:55:48;28.30;45.60
51476;DHT22;37554;50.362;7.568;2023-07-09T00:58:16;28.30;45.60
51476;DHT22;37554;50.362;7.568;2023-07-09T01:00:49;28.20;45.60
51476;DHT22;37554;50.362;7.568;2023-07-09T01:03:29;28.30;45.80
51476;DHT22;37554;50.362;7.568;2023-07-09T01:05:57;28.20;45.70
51476;DHT22;37554;50.362;7.568;2023-07-09T01:08:23;28.20;45.70
51476;DHT22;37554;50.362;7.568;2023-07-09T01:10:49;28.20;45.70
51476;DHT22;37554;50.362;7.568;2023-07-09T01:13:16;28.20;45.70
51476;DHT22;37554;50.362;7.568;2023-07-09T01:15:45;28.20;45.80
51476;DHT22;37554;50.362;7.568;2023-07-09T01:18:12;28.20;45.80
51476;DHT22;37554;50.362;7.568;2023-07-09T01:20:40;28.10;45.80
51476;DHT22;37554;50.362;7.568;2023-07-09T01:23:06;28.10;45.80
51476;DHT22;37554;50.362;7.568;2023-07-09T01:25:33;28.10;45.90
51476;DHT22;37554;50.362;7.568;2023-07-09T01:27:59;28.10;46.00
51476;DHT22;37554;50.362;7.568;2023-07-09T01:30:32;28.00;46.10
51476;DHT22;37554;50.362;7.568;2023-07-09T01:32:59;28.00;46.10
51476;DHT22;37554;50.362;7.568;2023-07-09T01:35:27;28.00;46.10
51476;DHT22;37554;50.362;7.568;2023-07-09T01:37:54;28.00;46.20
51476;DHT22;37554;50.362;7.568;2023-07-09T01:40:21;27.90;46.10
51476;DHT22;37554;50.362;7.568;2023-07-09T01:42:48;27.90;46.10
51476;DHT22;37554;50.362;7.568;2023-07-09T01:45:13;27.90;46.20
51476;DHT22;37554;50.362;7.568;2023-07-09T01:47:40;27.90;46.30
51476;DHT22;37554;50.362;7.568;2023-07-09T01:50:06;27.90;46.30
51476;DHT22;37554;50.362;7.568;2023-07-09T01:52:33;27.80;46.20
51476;DHT22;37554;50.362;7.568;2023-07-09T01:54:59;27.80;46.30
51476;DHT22;37554;50.362;7.568;2023-07-09T01:57:28;27.80;46.40
51476;DHT22;37554;50.362;7.568;2023-07-09T02:00:06;27.80;46.40
51476;DHT22;37554;50.362;7.568;2023-07-09T02:02:34;27.80;46.40
51476;DHT22;37554;50.362;7.568;2023-07-09T02:05:01;27.80;47.10
51476;DHT22;37554;50.362;7.568;2023-07-09T02:07:27;27.80;46.50
51476;DHT22;37554;50.362;7.568;2023-07-09T02:09:53;27.80;46.50
51476;DHT22;37554;50.362;7.568;2023-07-09T02:12:19;27.80;46.60
51476;DHT22;37554;50.362;7.568;2023-07-09T02:14:46;27.70;46.60
51476;DHT22;37554;50.362;7.568;2023-07-09T02:17:13;27.70;46.60
51476;DHT22;37554;50.362;7.568;2023-07-09T02:19:39;27.70;46.60
51476;DHT22;37554;50.362;7.568;2023-07-09T02:22:06;27.70;46.60
51476;DHT22;37554;50.362;7.568;2023-07-09T02:24:32;27.70;46.70
51476;DHT22;37554;50.362;7.568;2023-07-09T02:27:00;27.60;46.70
51476;DHT22;37554;50.362;7.568;2023-07-09T02:29:26;27.60;46.80
51476;DHT22;37554;50.362;7.568;2023-07-09T02:31:55;27.50;46.80
51476;DHT22;37554;50.362;7.568;2023-07-09T02:34:20;27.50;46.90
51476;DHT22;37554;50.362;7.568;2023-07-09T02:36:55;27.50;47.00
51476;DHT22;37554;50.362;7.568;2023-07-09T02:39:23;27.50;47.00
51476;DHT22;37554;50.362;7.568;2023-07-09T02:41:49;27.40;47.00
51476;DHT22;37554;50.362;7.568;2023-07-09T02:44:16;27.40;47.00
51476;DHT22;37554;50.362;7.568;2023-07-09T02:46:42;27.40;46.90
51476;DHT22;37554;50.362;7.568;2023-07-09T02:49:10;27.40;47.00
51476;DHT22;37554;50.362;7.568;2023-07-09T02:51:36;27.40;47.00
51476;DHT22;37554;50.362;7.568;2023-07-09T02:54:03;27.40;47.10
51476;DHT22;37554;50.362;7.568;2023-07-09T02:56:29;27.40;47.10
51476;DHT22;37554;50.362;7.568;2023-07-09T02:58:55;27.40;47.20
51476;DHT22;37554;50.362;7.568;2023-07-09T03:01:21;27.30;47.20
51476;DHT22;37554;50.362;7.568;2023-07-09T03:03:53;27.30;47.30
51476;DHT22;37554;50.362;7.568;2023-07-09T03:06:20;27.30;47.40
51476;DHT22;37554;50.362;7.568;2023-07-09T03:08:46;27.30;47.50
51476;DHT22;37554;50.362;7.568;2023-07-09T03:11:13;27.20;47.50
51476;DHT22;37554;50.362;7.568;2023-07-09T03:13:38;27.20;47.50
51476;DHT22;37554;50.362;7.568;2023-07-09T03:16:04;27.20;47.60
51476;DHT22;37554;50.362;7.568;2023-07-09T03:18:30;27.10;47.60
51476;DHT22;37554;50.362;7.568;2023-07-09T03:20:56;27.20;47.70
51476;DHT22;37554;50.362;7.568;2023-07-09T03:23:22;27.10;47.70
51476;DHT22;37554;50.362;7.568;2023-07-09T03:25:47;27.10;47.70
51476;DHT22;37554;50.362;7.568;2023-07-09T03:28:13;27.10;47.80
51476;DHT22;37554;50.362;7.568;2023-07-09T03:30:43;27.10;47.80
51476;DHT22;37554;50.362;7.568;2023-07-09T03:33:13;27.10;47.90
51476;DHT22;37554;50.362;7.568;2023-07-09T03:35:39;27.00;47.90
51476;DHT22;37554;50.362;7.568;2023-07-09T03:38:06;27.00;48.00
51476;DHT22;37554;50.362;7.568;2023-07-09T03:40:32;27.00;48.00
51476;DHT22;37554;50.362;7.568;2023-07-09T03:42:58;27.00;48.10
51476;DHT22;37554;50.362;7.568;2023-07-09T03:45:23;26.90;48.00
51476;DHT22;37554;50.362;7.568;2023-07-09T03:47:49;26.90;48.10
51476;DHT22;37554;50.362;7.568;2023-07-09T03:50:15;26.90;48.10
51476;DHT22;37554;50.362;7.568;2023-07-09T03:52:41;26.90;48.10
51476;DHT22;37554;50.362;7.568;2023-07-09T03:55:07;26.90;48.10
51476;DHT22;37554;50.362;7.568;2023-07-09T03:57:34;26.90;48.20
51476;DHT22;37554;50.362;7.568;2023-07-09T04:00:00;26.90;48.20
51476;DHT22;37554;50.362;7.568;2023-07-09T04:02:26;26.90;48.30
51476;DHT22;37554;50.362;7.568;2023-07-09T04:04:51;26.90;48.30
51476;DHT22;37554;50.362;7.568;2023-07-09T04:07:17;26.80;48.30
51476;DHT22;37554;50.362;7.568;2023-07-09T04:09:43;26.90;48.40
51476;DHT22;37554;50.362;7.568;2023-07-09T04:12:09;26.80;48.40
51476;DHT22;37554;50.362;7.568;2023-07-09T04:14:35;26.80;48.50
51476;DHT22;37554;50.362;7.568;2023-07-09T04:17:01;26.80;48.50
51476;DHT22;37554;50.362;7.568;2023-07-09T04:19:27;26.80;48.60
51476;DHT22;37554;50.362;7.568;2023-07-09T04:21:52;26.80;48.60
51476;DHT22;37554;50.362;7.568;2023-07-09T04:24:19;26.80;48.70
51476;DHT22;37554;50.362;7.568;2023-07-09T04:26:46;26.80;48.70
51476;DHT22;37554;50.362;7.568;2023-07-09T04:29:12;26.80;48.70
51476;DHT22;37554;50.362;7.568;2023-07-09T04:31:37;26.80;48.80
51476;DHT22;37554;50.362;7.568;2023-07-09T04:34:04;26.80;48.80
51476;DHT22;37554;50.362;7.568;2023-07-09T04:36:30;26.80;48.80
51476;DHT22;37554;50.362;7.568;2023-07-09T04:38:56;26.80;48.80
51476;DHT22;37554;50.362;7.568;2023-07-09T04:41:22;26.80;48.80
51476;DHT22;37554;50.362;7.568;2023-07-09T04:43:48;26.80;48.80
51476;DHT22;37554;50.362;7.568;2023-07-09T04:46:14;26.80;48.90
51476;DHT22;37554;50.362;7.568;2023-07-09T04:48:40;26.80;48.90
51476;DHT22;37554;50.362;7.568;2023-07-09T04:51:06;26.80;48.90
51476;DHT22;37554;50.362;7.568;2023-07-09T04:53:31;26.80;48.90
51476;DHT22;37554;50.362;7.568;2023-07-09T04:55:57;26.80;49.60
51476;DHT22;37554;50.362;7.568;2023-07-09T04:58:23;26.80;49.00
51476;DHT22;37554;50.362;7.568;2023-07-09T05:00:48;26.80;49.00
51476;DHT22;37554;50.362;7.568;2023-07-09T05:03:17;26.80;49.10
51476;DHT22;37554;50.362;7.568;2023-07-09T05:05:44;26.80;49.10
51476;DHT22;37554;50.362;7.568;2023-07-09T05:08:12;26.80;49.10
51476;DHT22;37554;50.362;7.568;2023-07-09T05:10:45;26.80;49.10
51476;DHT22;37554;50.362;7.568;2023-07-09T05:13:12;26.90;49.40
51476;DHT22;37554;50.362;7.568;2023-07-09T05:15:43;26.80;49.40
51476;DHT22;37554;50.362;7.568;2023-07-09T05:18:10;26.80;49.40
51476;DHT22;37554;50.362;7.568;2023-07-09T05:20:35;26.90;49.40
51476;DHT22;37554;50.362;7.568;2023-07-09T05:23:01;26.90;49.30
51476;DHT22;37554;50.362;7.568;2023-07-09T05:25:27;26.90;49.30
51476;DHT22;37554;50.362;7.568;2023-07-09T05:27:52;26.90;49.30
51476;DHT22;37554;50.362;7.568;2023-07-09T05:30:18;26.90;49.40
51476;DHT22;37554;50.362;7.568;2023-07-09T05:32:44;26.60;50.30
51476;DHT22;37554;50.362;7.568;2023-07-09T05:35:10;26.20;51.60
51476;DHT22;37554;50.362;7.568;2023-07-09T05:37:37;25.80;52.50
51476;DHT22;37554;50.362;7.568;2023-07-09T05:40:04;25.50;53.20
51476;DHT22;37554;50.362;7.568;2023-07-09T05:42:31;25.10;54.10
51476;DHT22;37554;50.362;7.568;2023-07-09T05:44:56;24.80;54.80
51476;DHT22;37554;50.362;7.568;2023-07-09T05:47:22;24.70;55.40
51476;DHT22;37554;50.362;7.568;2023-07-09T05:49:48;24.70;55.50
51476;DHT22;37554;50.362;7.568;2023-07-09T05:52:16;24.70;55.50
51476;DHT22;37554;50.362;7.568;2023-07-09T05:54:42;24.70;55.60
51476;DHT22;37554;50.362;7.568;2023-07-09T05:57:08;24.60;55.70
51476;DHT22;37554;50.362;7.568;2023-07-09T05:59:34;24.70;55.50
51476;DHT22;37554;50.362;7.568;2023-07-09T06:02:00;24.80;55.30
51476;DHT22;37554;50.362;7.568;2023-07-09T06:04:26;24.80;55.00
51476;DHT22;37554;50.362;7.568;2023-07-09T06:06:52;24.90;54.80
51476;DHT22;37554;50.362;7.568;2023-07-09T06:09:19;24.90;55.10
51476;DHT22;37554;50.362;7.568;2023-07-09T06:11:44;24.90;55.20
51476;DHT22;37554;50.362;7.568;2023-07-09T06:14:10;24.90;55.40
51476;DHT22;37554;50.362;7.568;2023-07-09T06:16:36;25.00;55.20
51476;DHT22;37554;50.362;7.568;2023-07-09T06:19:02;25.00;55.10
51476;DHT22;37554;50.362;7.568;2023-07-09T06:21:29;25.10;55.00
51476;DHT22;37554;50.362;7.568;2023-07-09T06:23:54;25.20;54.90
51476;DHT22;37554;50.362;7.568;2023-07-09T06:26:20;25.30;54.80
51476;DHT22;37554;50.362;7.568;2023-07-09T06:28:46;25.40;54.80
51476;DHT22;37554;50.362;7.568;2023-07-09T06:31:12;25.40;54.70
51476;DHT22;37554;50.362;7.568;2023-07-09T06:33:37;25.50;54.60
51476;DHT22;37554;50.362;7.568;2023-07-09T06:36:03;25.60;54.50
51476;DHT22;37554;50.362;7.568;2023-07-09T06:38:30;25.70;54.30
51476;DHT22;37554;50.362;7.568;2023-07-09T06:40:57;25.70;54.20
51476;DHT22;37554;50.362;7.568;2023-07-09T06:43:22;25.80;53.80
51476;DHT22;37554;50.362;7.568;2023-07-09T06:45:59;25.90;53.50
51476;DHT22;37554;50.362;7.568;2023-07-09T06:48:26;26.00;53.90
51476;DHT22;37554;50.362;7.568;2023-07-09T06:50:54;26.10;53.80
51476;DHT22;37554;50.362;7.568;2023-07-09T06:53:21;26.10;53.50
51476;DHT22;37554;50.362;7.568;2023-07-09T06:55:47;26.10;53.10
51476;DHT22;37554;50.362;7.568;2023-07-09T06:58:16;26.00;53.20
51476;DHT22;37554;50.362;7.568;2023-07-09T07:00:41;26.10;53.10
51476;DHT22;37554;50.362;7.568;2023-07-09T07:03:08;26.30;53.00
51476;DHT22;37554;50.362;7.568;2023-07-09T07:05:34;26.30;53.10
51476;DHT22;37554;50.362;7.568;2023-07-09T07:08:01;26.50;53.10
51476;DHT22;37554;50.362;7.568;2023-07-09T07:10:26;26.60;52.80
51476;DHT22;37554;50.362;7.568;2023-07-09T07:12:52;26.70;52.60
51476;DHT22;37554;50.362;7.568;2023-07-09T07:15:18;26.80;52.80
51476;DHT22;37554;50.362;7.568;2023-07-09T07:17:44;26.90;52.60
51476;DHT22;37554;50.362;7.568;2023-07-09T07:20:12;27.00;52.30
51476;DHT22;37554;50.362;7.568;2023-07-09T07:22:38;27.00;52.40
51476;DHT22;37554;50.362;7.568;2023-07-09T07:25:05;26.90;52.50
51476;DHT22;37554;50.362;7.568;2023-07-09T07:27:31;27.00;52.30
51476;DHT22;37554;50.362;7.568;2023-07-09T07:29:57;27.10;52.60
51476;DHT22;37554;50.362;7.568;2023-07-09T07:32:23;27.10;52.40
51476;DHT22;37554;50.362;7.568;2023-07-09T07:34:49;27.20;52.30
51476;DHT22;37554;50.362;7.568;2023-07-09T07:37:17;27.40;52.30
51476;DHT22;37554;50.362;7.568;2023-07-09T07:39:45;27.50;51.80
51476;DHT22;37554;50.362;7.568;2023-07-09T07:42:10;27.70;51.60
51476;DHT22;37554;50.362;7.568;2023-07-09T07:44:36;27.80;52.00
51476;DHT22;37554;50.362;7.568;2023-07-09T07:47:01;27.90;51.90
51476;DHT22;37554;50.362;7.568;2023-07-09T07:49:28;28.00;52.00
51476;DHT22;37554;50.362;7.568;2023-07-09T07:51:53;28.00;51.60
51476;DHT22;37554;50.362;7.568;2023-07-09T07:54:19;28.00;51.60
51476;DHT22;37554;50.362;7.568;2023-07-09T07:56:45;28.00;51.60
51476;DHT22;37554;50.362;7.568;2023-07-09T07:59:10;28.10;51.60
51476;DHT22;37554;50.362;7.568;2023-07-09T08:01:36;28.20;51.40
51476;DHT22;37554;50.362;7.568;2023-07-09T08:04:02;28.30;51.20
51476;DHT22;37554;50.362;7.568;2023-07-09T08:06:28;28.40;50.90
51476;DHT22;37554;50.362;7.568;2023-07-09T08:08:54;28.50;50.80
51476;DHT22;37554;50.362;7.568;2023-07-09T08:11:20;28.50;50.70
51476;DHT22;37554;50.362;7.568;2023-07-09T08:13:45;28.60;50.60
51476;DHT22;37554;50.362;7.568;2023-07-09T08:16:11;28.80;50.50
51476;DHT22;37554;50.362;7.568;2023-07-09T08:18:39;29.00;50.50
51476;DHT22;37554;50.362;7.568;2023-07-09T08:21:05;29.00;50.10
51476;DHT22;37554;50.362;7.568;2023-07-09T08:23:31;29.10;50.00
51476;DHT22;37554;50.362;7.568;2023-07-09T08:25:58;29.20;49.70
51476;DHT22;37554;50.362;7.568;2023-07-09T08:28:24;29.20;49.50
51476;DHT22;37554;50.362;7.568;2023-07-09T08:30:54;29.30;49.40
51476;DHT22;37554;50.362;7.568;2023-07-09T08:33:20;29.40;49.10
51476;DHT22;37554;50.362;7.568;2023-07-09T08:35:48;29.60;49.10
51476;DHT22;37554;50.362;7.568;2023-07-09T08:38:14;29.70;49.10
51476;DHT22;37554;50.362;7.568;2023-07-09T08:40:40;29.80;49.00
51476;DHT22;37554;50.362;7.568;2023-07-09T08:45:57;30.20;48.80
51476;DHT22;37554;50.362;7.568;2023-07-09T08:48:32;30.40;48.90
51476;DHT22;37554;50.362;7.568;2023-07-09T08:51:03;30.50;48.50
51476;DHT22;37554;50.362;7.568;2023-07-09T08:53:54;30.70;48.20
51476;DHT22;37554;50.362;7.568;2023-07-09T08:56:22;30.80;48.00
51476;DHT22;37554;50.362;7.568;2023-07-09T08:58:49;30.90;47.60
51476;DHT22;37554;50.362;7.568;2023-07-09T09:01:19;31.10;47.50
51476;DHT22;37554;50.362;7.568;2023-07-09T09:03:56;31.20;47.50
51476;DHT22;37554;50.362;7.568;2023-07-09T09:06:29;31.40;47.40
51476;DHT22;37554;50.362;7.568;2023-07-09T09:11:47;31.60;46.90
51476;DHT22;37554;50.362;7.568;2023-07-09T09:14:37;31.80;46.60
51476;DHT22;37554;50.362;7.568;2023-07-09T09:17:13;31.90;47.00
51476;DHT22;37554;50.362;7.568;2023-07-09T09:20:21;32.20;46.40
51476;DHT22;37554;50.362;7.568;2023-07-09T09:27:41;33.00;44.40
51476;DHT22;37554;50.362;7.568;2023-07-09T09:30:19;33.20;44.20
51476;DHT22;37554;50.362;7.568;2023-07-09T09:33:05;33.50;43.30
51476;DHT22;37554;50.362;7.568;2023-07-09T09:35:34;33.60;42.40
51476;DHT22;37554;50.362;7.568;2023-07-09T09:38:01;33.70;42.60
51476;DHT22;37554;50.362;7.568;2023-07-09T09:40:29;33.90;42.00
51476;DHT22;37554;50.362;7.568;2023-07-09T09:42:57;33.90;41.50
51476;DHT22;37554;50.362;7.568;2023-07-09T09:45:34;34.10;41.60
51476;DHT22;37554;50.362;7.568;2023-07-09T09:48:01;34.20;41.20
51476;DHT22;37554;50.362;7.568;2023-07-09T09:50:32;34.30;40.90
51476;DHT22;37554;50.362;7.568;2023-07-09T09:52:59;34.20;40.70
51476;DHT22;37554;50.362;7.568;2023-07-09T09:55:30;34.40;40.90
51476;DHT22;37554;50.362;7.568;2023-07-09T09:57:55;34.60;41.10
51476;DHT22;37554;50.362;7.568;2023-07-09T10:00:26;34.80;41.00
51476;DHT22;37554;50.362;7.568;2023-07-09T10:03:01;34.90;40.50
51476;DHT22;37554;50.362;7.568;2023-07-09T10:05:33;35.10;40.10
51476;DHT22;37554;50.362;7.568;2023-07-09T10:08:06;35.20;39.80
51476;DHT22;37554;50.362;7.568;2023-07-09T10:10:33;35.30;39.90
51476;DHT22;37554;50.362;7.568;2023-07-09T10:13:07;35.50;40.00
51476;DHT22;37554;50.362;7.568;2023-07-09T10:18:59;35.60;39.60
51476;DHT22;37554;50.362;7.568;2023-07-09T10:21:50;35.70;39.70
51476;DHT22;37554;50.362;7.568;2023-07-09T10:27:22;36.10;39.70
51476;DHT22;37554;50.362;7.568;2023-07-09T10:33:13;36.40;38.40
51476;DHT22;37554;50.362;7.568;2023-07-09T10:41:11;36.60;38.00
51476;DHT22;37554;50.362;7.568;2023-07-09T10:43:47;36.70;37.80
51476;DHT22;37554;50.362;7.568;2023-07-09T10:46:16;36.80;37.70
51476;DHT22;37554;50.362;7.568;2023-07-09T10:48:48;36.90;37.90
51476;DHT22;37554;50.362;7.568;2023-07-09T10:53:57;37.10;36.50
51476;DHT22;37554;50.362;7.568;2023-07-09T10:56:26;37.40;35.40
51476;DHT22;37554;50.362;7.568;2023-07-09T11:02:18;37.80;33.70
51476;DHT22;37554;50.362;7.568;2023-07-09T11:05:00;37.90;33.80
51476;DHT22;37554;50.362;7.568;2023-07-09T11:07:43;38.20;33.30
51476;DHT22;37554;50.362;7.568;2023-07-09T11:10:28;38.40;33.10
51476;DHT22;37554;50.362;7.568;2023-07-09T11:15:37;39.10;32.70
51476;DHT22;37554;50.362;7.568;2023-07-09T11:18:06;39.50;31.80
51476;DHT22;37554;50.362;7.568;2023-07-09T11:20:34;39.80;31.10
51476;DHT22;37554;50.362;7.568;2023-07-09T11:23:07;40.00;31.00
51476;DHT22;37554;50.362;7.568;2023-07-09T11:26:46;40.60;30.80
51476;DHT22;37554;50.362;7.568;2023-07-09T11:28:48;40.70;30.20
51476;DHT22;37554;50.362;7.568;2023-07-09T11:31:35;41.10;29.70
51476;DHT22;37554;50.362;7.568;2023-07-09T11:36:50;41.10;29.80
51476;DHT22;37554;50.362;7.568;2023-07-09T11:42:01;42.00;29.50
51476;DHT22;37554;50.362;7.568;2023-07-09T11:44:29;42.40;29.80
51476;DHT22;37554;50.362;7.568;2023-07-09T11:47:19;42.50;29.60
51476;DHT22;37554;50.362;7.568;2023-07-09T11:50:00;42.60;28.90
51476;DHT22;37554;50.362;7.568;2023-07-09T11:52:56;42.20;29.30
51476;DHT22;37554;50.362;7.568;2023-07-09T11:55:41;41.90;29.40
51476;DHT22;37554;50.362;7.568;2023-07-09T11:58:10;41.60;29.70
51476;DHT22;37554;50.362;7.568;2023-07-09T12:00:39;41.50;30.00
51476;DHT22;37554;50.362;7.568;2023-07-09T12:03:09;41.30;30.00
51476;DHT22;37554;50.362;7.568;2023-07-09T12:05:35;41.00;30.20
51476;DHT22;37554;50.362;7.568;2023-07-09T12:08:02;40.80;30.70
51476;DHT22;37554;50.362;7.568;2023-07-09T12:10:32;40.50;30.60
51476;DHT22;37554;50.362;7.568;2023-07-09T12:12:59;40.30;30.80
51476;DHT22;37554;50.362;7.568;2023-07-09T12:15:28;40.20;31.00
51476;DHT22;37554;50.362;7.568;2023-07-09T12:18:02;40.10;31.10
51476;DHT22;37554;50.362;7.568;2023-07-09T12:20:31;40.10;30.90
51476;DHT22;37554;50.362;7.568;2023-07-09T12:22:59;39.80;31.30
51476;DHT22;37554;50.362;7.568;2023-07-09T12:25:27;39.60;31.30
51476;DHT22;37554;50.362;7.568;2023-07-09T12:27:54;39.60;31.30
51476;DHT22;37554;50.362;7.568;2023-07-09T12:30:19;39.60;31.30
51476;DHT22;37554;50.362;7.568;2023-07-09T12:32:50;39.50;31.20
51476;DHT22;37554;50.362;7.568;2023-07-09T12:35:18;39.10;31.20
51476;DHT22;37554;50.362;7.568;2023-07-09T12:37:45;39.00;31.40
51476;DHT22;37554;50.362;7.568;2023-07-09T12:40:19;39.00;31.30
51476;DHT22;37554;50.362;7.568;2023-07-09T12:42:46;39.00;30.80
51476;DHT22;37554;50.362;7.568;2023-07-09T12:45:18;39.10;30.90
51476;DHT22;37554;50.362;7.568;2023-07-09T12:47:45;39.10;30.50
51476;DHT22;37554;50.362;7.568;2023-07-09T12:50:30;39.10;30.50
51476;DHT22;37554;50.362;7.568;2023-07-09T12:53:10;39.20;30.30
51476;DHT22;37554;50.362;7.568;2023-07-09T12:55:41;39.10;30.20
51476;DHT22;37554;50.362;7.568;2023-07-09T12:58:13;39.30;30.40
51476;DHT22;37554;50.362;7.568;2023-07-09T13:00:47;39.40;30.50
51476;DHT22;37554;50.362;7.568;2023-07-09T13:03:18;39.40;29.80
51476;DHT22;37554;50.362;7.568;2023-07-09T13:06:01;39.40;30.00
51476;DHT22;37554;50.362;7.568;2023-07-09T13:08:29;39.50;29.30
51476;DHT22;37554;50.362;7.568;2023-07-09T13:10:55;39.40;29.70
51476;DHT22;37554;50.362;7.568;2023-07-09T13:13:22;39.30;29.70
51476;DHT22;37554;50.362;7.568;2023-07-09T13:15:56;39.20;30.00
51476;DHT22;37554;50.362;7.568;2023-07-09T13:18:24;39.00;29.90
51476;DHT22;37554;50.362;7.568;2023-07-09T13:20:51;38.90;30.10
51476;DHT22;37554;50.362;7.568;2023-07-09T13:23:21;38.90;30.00
51476;DHT22;37554;50.362;7.568;2023-07-09T13:25:48;39.00;30.30
51476;DHT22;37554;50.362;7.568;2023-07-09T13:28:30;38.70;30.20
51476;DHT22;37554;50.362;7.568;2023-07-09T13:31:08;38.50;30.30
51476;DHT22;37554;50.362;7.568;2023-07-09T13:33:35;38.40;30.50
51476;DHT22;37554;50.362;7.568;2023-07-09T13:36:02;38.30;30.70
51476;DHT22;37554;50.362;7.568;2023-07-09T13:38:28;38.30;30.60
51476;DHT22;37554;50.362;7.568;2023-07-09T13:41:00;38.20;30.50
51476;DHT22;37554;50.362;7.568;2023-07-09T13:43:32;38.10;30.40
51476;DHT22;37554;50.362;7.568;2023-07-09T13:46:00;38.10;30.40
51476;DHT22;37554;50.362;7.568;2023-07-09T13:48:27;38.10;30.30
51476;DHT22;37554;50.362;7.568;2023-07-09T13:50:53;38.10;30.10
51476;DHT22;37554;50.362;7.568;2023-07-09T13:53:22;38.10;30.20
51476;DHT22;37554;50.362;7.568;2023-07-09T13:55:48;38.10;30.20
51476;DHT22;37554;50.362;7.568;2023-07-09T13:58:17;38.10;30.30
51476;DHT22;37554;50.362;7.568;2023-07-09T14:00:45;38.10;30.40
51476;DHT22;37554;50.362;7.568;2023-07-09T14:03:25;38.10;30.20
51476;DHT22;37554;50.362;7.568;2023-07-09T14:05:52;37.90;30.00
51476;DHT22;37554;50.362;7.568;2023-07-09T14:08:19;37.80;30.00
51476;DHT22;37554;50.362;7.568;2023-07-09T14:10:46;37.70;30.10
51476;DHT22;37554;50.362;7.568;2023-07-09T14:13:17;37.60;30.20
51476;DHT22;37554;50.362;7.568;2023-07-09T14:15:43;37.60;30.20
51476;DHT22;37554;50.362;7.568;2023-07-09T14:18:17;37.50;30.20
51476;DHT22;37554;50.362;7.568;2023-07-09T14:20:43;37.50;30.00
51476;DHT22;37554;50.362;7.568;2023-07-09T14:23:14;37.30;30.50
51476;DHT22;37554;50.362;7.568;2023-07-09T14:25:41;37.30;30.60
51476;DHT22;37554;50.362;7.568;2023-07-09T14:28:11;37.10;30.80
51476;DHT22;37554;50.362;7.568;2023-07-09T14:30:37;37.10;31.00
51476;DHT22;37554;50.362;7.568;2023-07-09T14:33:02;37.10;31.00
51476;DHT22;37554;50.362;7.568;2023-07-09T14:35:30;36.90;31.20
51476;DHT22;37554;50.362;7.568;2023-07-09T14:37:55;36.90;31.50
51476;DHT22;37554;50.362;7.568;2023-07-09T14:40:24;36.80;31.40
51476;DHT22;37554;50.362;7.568;2023-07-09T14:42:50;36.60;31.30
51476;DHT22;37554;50.362;7.568;2023-07-09T14:45:24;36.60;31.60
51476;DHT22;37554;50.362;7.568;2023-07-09T14:47:52;36.50;31.40
51476;DHT22;37554;50.362;7.568;2023-07-09T14:50:18;36.40;32.50
51476;DHT22;37554;50.362;7.568;2023-07-09T14:52:46;36.40;31.90
51476;DHT22;37554;50.362;7.568;2023-07-09T14:55:18;36.30;31.80
51476;DHT22;37554;50.362;7.568;2023-07-09T14:57:45;36.20;32.10
51476;DHT22;37554;50.362;7.568;2023-07-09T15:00:19;36.10;32.20
51476;DHT22;37554;50.362;7.568;2023-07-09T15:02:48;36.10;32.10
51476;DHT22;37554;50.362;7.568;2023-07-09T15:05:16;36.00;32.30
51476;DHT22;37554;50.362;7.568;2023-07-09T15:07:42;35.90;32.20
51476;DHT22;37554;50.362;7.568;2023-07-09T15:10:30;35.90;32.20
51476;DHT22;37554;50.362;7.568;2023-07-09T15:12:56;35.50;34.30
51476;DHT22;37554;50.362;7.568;2023-07-09T15:15:30;35.40;34.50
51476;DHT22;37554;50.362;7.568;2023-07-09T15:18:00;35.30;35.10
51476;DHT22;37554;50.362;7.568;2023-07-09T15:20:33;35.30;35.30
51476;DHT22;37554;50.362;7.568;2023-07-09T15:22:59;35.20;35.50
51476;DHT22;37554;50.362;7.568;2023-07-09T15:25:27;35.20;35.90
51476;DHT22;37554;50.362;7.568;2023-07-09T15:27:53;35.10;36.40
51476;DHT22;37554;50.362;7.568;2023-07-09T15:30:29;35.00;37.10
51476;DHT22;37554;50.362;7.568;2023-07-09T15:32:59;34.90;37.90
51476;DHT22;37554;50.362;7.568;2023-07-09T15:35:31;34.90;38.20
51476;DHT22;37554;50.362;7.568;2023-07-09T15:37:57;34.80;38.50
51476;DHT22;37554;50.362;7.568;2023-07-09T15:40:27;34.70;38.90
51476;DHT22;37554;50.362;7.568;2023-07-09T15:42:57;34.70;39.40
51476;DHT22;37554;50.362;7.568;2023-07-09T15:45:23;34.60;39.40
51476;DHT22;37554;50.362;7.568;2023-07-09T15:47:50;34.60;39.70
51476;DHT22;37554;50.362;7.568;2023-07-09T15:50:22;34.60;40.00
51476;DHT22;37554;50.362;7.568;2023-07-09T15:52:51;34.50;40.20
51476;DHT22;37554;50.362;7.568;2023-07-09T15:55:25;34.30;41.50
51476;DHT22;37554;50.362;7.568;2023-07-09T15:57:54;33.50;42.90
51476;DHT22;37554;50.362;7.568;2023-07-09T16:00:24;32.80;44.40
51476;DHT22;37554;50.362;7.568;2023-07-09T16:02:51;32.30;45.50
51476;DHT22;37554;50.362;7.568;2023-07-09T16:05:29;31.90;46.20
51476;DHT22;37554;50.362;7.568;2023-07-09T16:07:56;31.50;48.00
51476;DHT22;37554;50.362;7.568;2023-07-09T16:10:24;31.20;48.50
51476;DHT22;37554;50.362;7.568;2023-07-09T16:12:51;31.10;49.10
51476;DHT22;37554;50.362;7.568;2023-07-09T16:15:18;30.90;49.50
51476;DHT22;37554;50.362;7.568;2023-07-09T16:17:45;30.70;50.30
51476;DHT22;37554;50.362;7.568;2023-07-09T16:20:12;30.60;50.80